createdAt,value
2018-12-10T00:01:19.797Z,86.01
2018-12-10T00:06:13.076Z,85.97
2018-12-10T00:11:06.543Z,84.53
2018-12-10T00:15:59.825Z,83.39
2018-12-10T00:26:17.794Z,84.18
2018-12-10T00:31:11.055Z,85.04
2018-12-10T00:36:04.326Z,85.45
2018-12-10T00:40:57.608Z,86.76
2018-12-10T00:45:50.884Z,87.05
2018-12-10T01:06:58.875Z,82.62
2018-12-10T01:11:52.498Z,81.34
2018-12-10T01:16:45.784Z,80.35
2018-12-10T01:21:39.068Z,81.03
2018-12-10T01:26:32.373Z,80.56
2018-12-10T01:31:25.779Z,80.23
2018-12-10T01:36:19.126Z,79.87
2018-12-10T01:57:27.119Z,75.59
2018-12-10T02:02:20.394Z,74.49
2018-12-10T02:07:13.683Z,74.58
2018-12-10T02:12:06.950Z,74.89
2018-12-10T02:17:00.242Z,74.78
2018-12-10T02:37:00.597Z,76.60
2018-12-10T02:41:53.874Z,76.40
2018-12-10T02:46:47.154Z,76.97
2018-12-10T02:51:40.423Z,78.27
2018-12-10T03:07:22.903Z,76.13
2018-12-10T03:12:16.180Z,75.53
2018-12-10T03:17:09.456Z,76.65
2018-12-10T03:22:02.727Z,77.88
2018-12-10T03:42:37.003Z,77.71
2018-12-10T03:47:30.279Z,77.81
2018-12-10T03:52:23.555Z,78.02
2018-12-10T03:57:16.839Z,78.36
2018-12-10T04:02:10.117Z,78.03
2018-12-10T04:07:03.374Z,76.97
2018-12-10T04:11:56.686Z,76.05
2018-12-10T04:16:49.936Z,76.28
2018-12-10T04:37:56.842Z,76.66
2018-12-10T04:42:50.148Z,77.05
2018-12-10T04:47:43.437Z,76.62
2018-12-10T04:52:36.804Z,75.87
2018-12-10T04:57:30.100Z,75.59
2018-12-10T05:18:38.060Z,75.70
2018-12-10T05:23:31.316Z,75.00
2018-12-10T05:28:24.611Z,74.24
2018-12-10T05:33:17.886Z,74.66
2018-12-10T05:38:11.183Z,74.74
2018-12-10T05:47:55.622Z,75.83
2018-12-10T05:52:50.546Z,75.51
2018-12-10T05:57:44.027Z,76.72
2018-12-10T06:02:37.319Z,76.05
2018-12-10T06:23:44.517Z,78.20
2018-12-10T06:28:37.835Z,78.61
2018-12-10T06:33:31.120Z,78.81
2018-12-10T06:38:24.439Z,79.65
2018-12-10T06:43:17.783Z,80.59
2018-12-10T06:48:11.163Z,81.19
2018-12-10T06:53:04.590Z,81.28
2018-12-10T06:57:57.875Z,81.44
2018-12-10T07:19:05.981Z,81.42
2018-12-10T07:23:59.314Z,80.66
2018-12-10T07:28:53.273Z,80.18
2018-12-10T07:33:46.576Z,79.89
2018-12-10T07:38:39.902Z,78.98
2018-12-10T07:59:48.096Z,80.11
2018-12-10T08:04:42.276Z,80.43
2018-12-10T08:09:35.776Z,80.67
2018-12-10T08:14:29.078Z,79.25
2018-12-10T08:24:59.967Z,81.10
2018-12-10T08:29:53.508Z,80.30
2018-12-10T08:34:46.914Z,79.85
2018-12-10T08:39:40.624Z,81.17
2018-12-10T09:00:48.375Z,81.30
2018-12-10T09:05:41.661Z,81.50
2018-12-10T09:10:35.065Z,80.32
2018-12-10T09:15:28.367Z,77.59
2018-12-10T09:20:21.743Z,78.07
2018-12-10T09:25:15.083Z,76.97
2018-12-10T09:30:11.106Z,77.96
2018-12-10T09:35:05.523Z,79.39
2018-12-10T09:39:58.971Z,78.51
2018-12-10T10:01:06.782Z,78.56
2018-12-10T10:06:00.062Z,78.33
2018-12-10T10:10:53.730Z,77.12
2018-12-10T10:15:48.562Z,76.54
2018-12-10T10:36:56.749Z,68.17
2018-12-10T10:41:50.210Z,67.59
2018-12-10T10:46:45.031Z,66.55
2018-12-10T10:51:39.529Z,65.65
2018-12-10T10:56:32.965Z,65.42
2018-12-10T11:06:51.297Z,62.81
2018-12-10T11:11:44.918Z,63.76
2018-12-10T11:16:38.310Z,65.42
2018-12-10T11:21:33.691Z,63.75
2018-12-10T11:42:41.177Z,66.27
2018-12-10T11:47:34.493Z,67.09
2018-12-10T11:52:28.191Z,69.18
2018-12-10T11:57:21.519Z,71.15
2018-12-10T12:02:29.586Z,69.97
2018-12-10T12:23:32.498Z,71.75
2018-12-10T12:28:25.884Z,69.69
2018-12-10T12:33:19.183Z,67.81
2018-12-10T12:38:12.884Z,67.57
2018-12-10T12:53:56.167Z,65.87
2018-12-10T12:58:58.564Z,71.47
2018-12-10T13:03:52.615Z,74.30
2018-12-10T13:08:45.947Z,76.48
2018-12-10T13:29:52.918Z,83.30
2018-12-10T13:34:46.713Z,81.78
2018-12-10T13:39:40.021Z,82.90
2018-12-10T13:44:33.343Z,82.64
2018-12-10T14:05:40.496Z,81.68
2018-12-10T14:10:33.881Z,82.68
2018-12-10T14:15:27.176Z,82.64
2018-12-10T14:20:20.484Z,82.56
2018-12-10T14:25:23.166Z,82.56
2018-12-10T14:41:05.960Z,80.48
2018-12-10T14:46:01.492Z,80.81
2018-12-10T14:50:55.215Z,81.39
2018-12-10T14:55:48.612Z,81.58
2018-12-10T15:16:55.959Z,77.41
2018-12-10T15:21:49.367Z,76.76
2018-12-10T15:26:42.679Z,76.70
2018-12-10T15:31:35.966Z,76.72
2018-12-10T15:36:29.251Z,78.40
2018-12-10T15:57:36.976Z,81.07
2018-12-10T16:02:30.648Z,80.04
2018-12-10T16:07:24.051Z,75.76
2018-12-10T16:12:17.327Z,76.88
2018-12-10T16:17:16.978Z,79.45
2018-12-10T16:27:36.026Z,83.00
2018-12-10T16:32:29.324Z,84.65
2018-12-10T16:37:22.735Z,84.51
2018-12-10T16:42:16.058Z,83.90
2018-12-10T17:03:23.107Z,84.94
2018-12-10T17:08:16.495Z,85.53
2018-12-10T17:13:09.771Z,86.00
2018-12-10T17:18:03.094Z,85.45
2018-12-10T17:22:56.556Z,84.23
2018-12-10T17:44:04.443Z,84.26
2018-12-10T17:48:57.731Z,82.79
2018-12-10T17:53:51.162Z,80.21
2018-12-10T17:58:45.015Z,78.77
2018-12-10T18:09:07.533Z,82.37
2018-12-10T18:14:00.799Z,83.70
2018-12-10T18:18:54.146Z,83.01
2018-12-10T18:23:47.511Z,82.61
2018-12-10T18:28:40.987Z,82.45
2018-12-10T18:49:49.068Z,81.03
2018-12-10T18:54:42.381Z,81.86
2018-12-10T18:59:35.752Z,80.84
2018-12-10T19:04:29.022Z,81.97
2018-12-10T19:25:36.740Z,73.98
2018-12-10T19:30:30.035Z,72.53
2018-12-10T19:35:23.310Z,73.89
2018-12-10T19:40:16.679Z,74.87
2018-12-10T19:45:10.019Z,75.58
2018-12-10T19:55:28.793Z,74.99
2018-12-10T20:00:22.253Z,74.32
2018-12-10T20:05:15.790Z,72.64
2018-12-10T20:10:09.433Z,71.00
2018-12-10T20:15:02.915Z,70.81
2018-12-10T20:36:10.423Z,72.44
2018-12-10T20:41:03.859Z,71.78
2018-12-10T20:45:57.183Z,71.88
2018-12-10T20:50:50.459Z,71.92
2018-12-10T20:55:43.732Z,72.65
2018-12-10T21:16:51.065Z,73.90
2018-12-10T21:21:44.336Z,74.62
2018-12-10T21:26:37.620Z,75.20
2018-12-10T21:31:30.904Z,76.49
2018-12-10T21:36:24.408Z,77.92
2018-12-10T21:41:40.816Z,79.71
2018-12-10T21:46:34.103Z,79.89
2018-12-10T21:51:27.375Z,80.88
2018-12-10T21:56:20.837Z,83.54
2018-12-10T22:01:14.168Z,84.65
2018-12-10T22:22:22.736Z,87.71
2018-12-10T22:27:16.026Z,88.39
2018-12-10T22:32:09.315Z,89.36
2018-12-10T22:37:02.594Z,90.11
2018-12-10T22:41:55.870Z,89.94
2018-12-10T23:03:03.598Z,87.27
2018-12-10T23:07:56.888Z,87.60
2018-12-10T23:12:50.170Z,86.71
2018-12-10T23:17:44.440Z,86.55
2018-12-10T23:28:02.926Z,86.70
2018-12-10T23:32:56.227Z,86.83
2018-12-10T23:37:49.504Z,86.50
2018-12-10T23:47:56.950Z,86.32
2018-12-10T23:52:50.244Z,86.44
2018-12-10T23:57:43.564Z,86.48
